createdAt,value
2016-09-09T17:41:06.793Z,59.05
2016-09-09T17:42:09.762Z,59.25
2016-09-09T17:43:07.828Z,59.83
2016-09-09T17:44:06.053Z,60.11
2016-09-09T17:45:06.848Z,60.5
2016-09-09T17:46:06.097Z,60.6
2016-09-09T17:47:06.111Z,60.79
2016-09-09T17:48:06.153Z,61.57
2016-09-09T17:49:06.146Z,62.02
2016-09-09T17:50:06.688Z,61.92
2016-09-09T17:51:06.193Z,61.83
2016-09-09T17:52:13.451Z,62.02
2016-09-09T17:53:12.821Z,62.57
2016-09-09T17:54:24.837Z,63.34
2016-09-09T17:55:12.626Z,63.24
2016-09-09T17:56:09.767Z,64.01
2016-09-09T17:57:14.523Z,64.11
2016-09-09T17:58:09.468Z,64.5
2016-09-09T17:59:13.519Z,64.47
2016-09-09T18:00:24.809Z,64.86
2016-09-09T18:01:14.846Z,64.86
2016-09-09T18:02:10.220Z,65.34
2016-09-09T18:03:09.374Z,65.14
2016-09-09T18:04:25.063Z,65.72
2016-09-09T18:05:12.289Z,66.2
2016-09-09T18:06:08.513Z,66.3
2016-09-09T18:07:06.597Z,66.11
2016-09-09T18:08:10.876Z,66.08
2016-09-09T18:09:07.442Z,66.36
2016-09-09T18:10:08.854Z,66.36
2016-09-09T18:11:06.672Z,66.17
2016-09-09T18:12:06.706Z,66.56
2016-09-09T18:13:06.727Z,66.75
2016-09-09T18:14:06.750Z,66.94
2016-09-09T18:15:06.776Z,67.33
2016-09-09T18:16:06.844Z,67.04
2016-09-09T18:17:06.818Z,66.72
2016-09-09T18:18:06.915Z,67.52
2016-09-09T18:19:06.870Z,67.52
2016-09-09T18:20:06.894Z,67.2
2016-09-09T18:21:06.914Z,67.4
2016-09-09T18:22:06.935Z,67.78
2016-09-09T18:23:09.688Z,67.3
2016-09-09T18:24:06.991Z,68.07
2016-09-09T18:25:07.632Z,69.03
2016-09-09T18:26:07.032Z,68.93
2016-09-09T18:27:07.051Z,69.32
2016-09-09T18:28:07.076Z,69.32
2016-09-09T18:29:07.108Z,68.84
2016-09-09T18:30:07.122Z,69.87
2016-09-09T18:31:07.157Z,69.38
2016-09-09T18:32:07.175Z,69.71
2016-09-09T18:33:07.834Z,69.48
2016-09-09T18:34:07.236Z,69.77
2016-09-09T18:35:07.730Z,69.29
2016-09-09T18:36:07.323Z,68.99
2016-09-09T18:37:07.337Z,69.77
2016-09-09T18:38:09.005Z,70.48
2016-09-09T18:39:07.350Z,71.12
2016-09-09T18:40:07.519Z,70.73
2016-09-09T18:41:07.446Z,70.92
2016-09-09T18:42:07.412Z,71.02
2016-09-09T18:43:07.427Z,71.22
2016-09-09T18:44:07.450Z,71.22
2016-09-09T18:45:07.523Z,71.02
2016-09-09T18:46:07.498Z,71.41
2016-09-09T18:47:07.517Z,71.5
2016-09-09T18:48:07.556Z,71.12
2016-09-09T18:49:07.577Z,71.22
2016-09-09T18:50:07.702Z,71.31
2016-09-09T18:51:07.617Z,71.6
2016-09-09T18:52:07.635Z,71.6
2016-09-09T18:53:07.675Z,72.18
2016-09-09T18:54:07.693Z,72.37
2016-09-09T18:55:08.579Z,73.05
2016-09-09T18:56:07.728Z,72.91
2016-09-09T18:57:07.755Z,73.01
2016-09-09T18:58:07.778Z,72.91
2016-09-09T18:59:07.800Z,72.63
2016-09-09T19:00:07.826Z,73.3
2016-09-09T19:01:07.851Z,73.2
2016-09-09T19:02:07.872Z,73.2
2016-09-09T19:03:07.896Z,73.1
2016-09-09T19:04:07.914Z,73.1
2016-09-09T19:05:07.941Z,72.91
2016-09-09T19:06:07.958Z,72.53
2016-09-09T19:07:07.991Z,73.1
2016-09-09T19:08:08.080Z,73.3
2016-09-09T19:09:08.033Z,73.78
2016-09-09T19:10:08.056Z,73.49
2016-09-09T19:11:09.693Z,73.2
2016-09-09T19:12:08.473Z,73.3
2016-09-09T19:13:09.961Z,73.3
2016-09-09T19:14:09.885Z,72.81
2016-09-09T19:15:08.181Z,72.81
2016-09-09T19:16:09.873Z,72.63
2016-09-09T19:17:11.408Z,72.53
2016-09-09T19:18:13.513Z,72.81
2016-09-09T19:19:15.236Z,72.72
2016-09-09T19:20:13.639Z,73.49
2016-09-09T19:21:16.071Z,73.3
2016-09-09T19:22:15.692Z,73.58
2016-09-09T19:23:11.049Z,73.39
2016-09-09T19:24:12.711Z,73.39
2016-09-09T19:25:11.332Z,73.78
2016-09-09T19:26:11.623Z,73.39
2016-09-09T19:27:15.247Z,73.2
2016-09-09T19:28:14.794Z,73.39
2016-09-09T19:29:15.327Z,73.49
2016-09-09T19:30:08.518Z,73.58
2016-09-09T19:31:08.540Z,73.2
2016-09-09T19:32:09.819Z,73.39
2016-09-09T19:33:08.594Z,73.39
2016-09-09T19:34:08.617Z,73.2
2016-09-09T19:35:09.187Z,73.49
2016-09-09T19:36:08.657Z,73.78
2016-09-09T19:37:08.674Z,73.97
2016-09-09T19:38:08.707Z,73.97
2016-09-09T19:39:08.751Z,74.26
2016-09-09T19:40:08.823Z,74.22
2016-09-09T19:41:10.284Z,74.13
2016-09-09T19:42:08.790Z,74.07
2016-09-09T19:43:09.206Z,74.13
2016-09-09T19:44:08.842Z,73.88
2016-09-09T19:45:08.867Z,73.94
2016-09-09T19:46:08.884Z,73.84
2016-09-09T19:47:09.332Z,73.94
2016-09-09T19:48:08.933Z,73.74
2016-09-09T19:49:08.954Z,73.94
2016-09-09T19:50:08.973Z,74.03
2016-09-09T19:51:09.016Z,73.84
2016-09-09T19:52:09.076Z,73.94
2016-09-09T19:53:09.046Z,74.13
2016-09-09T19:54:09.067Z,74.03
2016-09-09T19:55:09.089Z,73.74
2016-09-09T19:56:09.143Z,74.13
2016-09-09T19:57:09.809Z,74.13
2016-09-09T19:58:09.502Z,74.13
2016-09-09T19:59:09.183Z,74.41
2016-09-09T20:00:09.224Z,74.9
2016-09-09T20:01:09.230Z,74.9
2016-09-09T20:02:09.281Z,74.51
2016-09-09T20:03:09.274Z,74.9
2016-09-09T20:04:09.302Z,74.8
2016-09-09T20:05:09.319Z,74.71
2016-09-09T20:06:09.676Z,74.99
2016-09-09T20:07:09.444Z,74.61
2016-09-09T20:08:09.388Z,75.09
2016-09-09T20:09:09.439Z,75.19
2016-09-09T20:10:09.774Z,74.96
2016-09-09T20:11:09.477Z,75.54
2016-09-09T20:12:09.526Z,76.4
2016-09-09T20:13:11.641Z,76.88
2016-09-09T20:14:09.523Z,77.26
2016-09-09T20:15:09.542Z,78.09
2016-09-09T20:16:09.567Z,78.19
2016-09-09T20:17:09.920Z,79.35
2016-09-09T20:18:09.617Z,79.69
2016-09-09T20:19:09.635Z,80.17
2016-09-09T20:20:09.655Z,80.27
2016-09-09T20:21:09.691Z,80.61
2016-09-09T20:22:09.705Z,81.48
2016-09-09T20:23:09.728Z,82.15
2016-09-09T20:24:09.748Z,82.15
2016-09-09T20:25:09.766Z,81.96
2016-09-09T20:26:09.853Z,82.05
2016-09-09T20:27:09.816Z,82.05
2016-09-09T20:28:10.525Z,82.53
2016-09-09T20:29:10.184Z,82.1
2016-09-09T20:30:09.887Z,82.78
2016-09-09T20:31:09.910Z,82.68
2016-09-09T20:32:09.929Z,82.97
2016-09-09T20:33:09.950Z,82.68
2016-09-09T20:34:09.967Z,83.07
2016-09-09T20:35:09.992Z,83.07
2016-09-09T20:36:10.011Z,83.45
2016-09-09T20:37:10.037Z,83.36
2016-09-09T20:38:10.056Z,83.74
2016-09-09T20:39:10.077Z,83.84
2016-09-09T20:40:10.108Z,83.36
2016-09-09T20:41:10.367Z,83.74
2016-09-09T20:42:10.149Z,83.64
2016-09-09T20:43:11.927Z,83.89
2016-09-09T20:44:10.195Z,84.08
2016-09-09T20:45:10.213Z,84.37
2016-09-09T20:46:10.239Z,84.18
2016-09-09T20:47:10.256Z,83.98
2016-09-09T20:48:11.436Z,84.47
2016-09-09T20:49:10.310Z,84.47
2016-09-09T20:50:10.329Z,85.24
2016-09-09T20:51:10.350Z,85.24
2016-09-09T20:52:10.372Z,85.04
2016-09-09T20:53:10.392Z,85.14
2016-09-09T20:54:10.426Z,85.24
2016-09-09T20:55:10.462Z,85.24
2016-09-09T20:56:10.469Z,84.95
2016-09-09T20:57:10.484Z,85.42
2016-09-09T20:58:10.512Z,85.24
2016-09-09T20:59:10.522Z,85.71
2016-09-09T21:00:10.547Z,85.71
2016-09-09T21:01:10.591Z,85.71
2016-09-09T21:02:10.590Z,85.52
2016-09-09T21:03:10.610Z,85.91
2016-09-09T21:04:10.632Z,85.81
2016-09-09T21:05:10.656Z,86
2016-09-09T21:06:10.683Z,85.71
2016-09-09T21:07:10.713Z,85.58
2016-09-09T21:08:10.722Z,85.71
2016-09-09T21:09:10.750Z,85.77
2016-09-09T21:10:10.765Z,85.77
2016-09-09T21:11:10.788Z,85.58
2016-09-09T21:12:10.812Z,85.96
2016-09-09T21:13:10.836Z,85.48
2016-09-09T21:14:10.847Z,85.42
2016-09-09T21:15:10.877Z,85.67
2016-09-09T21:16:10.898Z,85
2016-09-09T21:17:10.913Z,85.14
2016-09-09T21:18:10.939Z,85.14
2016-09-09T21:19:10.992Z,84.37
2016-09-09T21:20:10.986Z,84.37
2016-09-09T21:21:11.008Z,84.18
2016-09-09T21:22:11.021Z,84.37
2016-09-09T21:23:11.046Z,84.27
2016-09-09T21:24:11.067Z,84.47
2016-09-09T21:25:11.091Z,83.6
2016-09-09T21:26:11.109Z,83.51
2016-09-09T21:27:11.142Z,83.6
2016-09-09T21:28:11.917Z,83.31
2016-09-09T21:29:11.189Z,83.6
2016-09-09T21:30:11.198Z,83.41
2016-09-09T21:31:11.217Z,83.31
2016-09-09T21:32:11.248Z,82.93
2016-09-09T21:33:11.265Z,82.84
2016-09-09T21:34:11.290Z,83.03
2016-09-09T21:35:11.325Z,83.03
2016-09-09T21:36:11.335Z,83.22
2016-09-09T21:37:11.354Z,82.84
2016-09-09T21:38:12.368Z,83.03
2016-09-09T21:39:11.392Z,83.22
2016-09-09T21:40:11.421Z,82.84
2016-09-09T21:41:11.449Z,82.93
2016-09-09T21:42:11.463Z,82.54
2016-09-09T21:43:11.483Z,82.84
2016-09-09T21:44:11.510Z,82.45
2016-09-09T21:45:11.528Z,82.64
2016-09-09T21:46:11.585Z,82.45
2016-09-09T21:47:11.566Z,82.64
2016-09-09T21:48:11.593Z,82.45
2016-09-09T21:49:11.617Z,82.45
2016-09-09T21:50:11.635Z,82.45
2016-09-09T21:51:11.660Z,82.64
2016-09-09T21:52:11.683Z,82.64
2016-09-09T21:53:11.701Z,82.74
2016-09-09T21:54:11.719Z,82.74
2016-09-09T21:55:11.742Z,82.74
2016-09-09T21:56:11.765Z,82.84
2016-09-09T21:57:11.788Z,82.64
2016-09-09T21:58:11.812Z,82.54
2016-09-09T21:59:11.835Z,83.03
2016-09-09T22:00:12.863Z,82.93
2016-09-09T22:01:12.063Z,83.08
2016-09-09T22:02:11.947Z,83.47
2016-09-09T22:03:11.957Z,83.75
2016-09-09T22:04:12.018Z,84.14
2016-09-09T22:05:11.959Z,84.61
2016-09-09T22:06:11.983Z,85.1
2016-09-09T22:07:12.003Z,85.48
2016-09-09T22:08:12.030Z,85.92
2016-09-09T22:09:12.049Z,85.82
2016-09-09T22:10:12.077Z,85.72
2016-09-09T22:11:12.089Z,85.72
2016-09-09T22:12:12.112Z,85.63
2016-09-09T22:13:12.150Z,85.72
2016-09-09T22:14:12.167Z,85.82
2016-09-09T22:15:12.185Z,85.72
2016-09-09T22:16:12.196Z,85.53
2016-09-09T22:17:12.221Z,85.82
2016-09-09T22:18:12.243Z,85.72
2016-09-09T22:19:12.262Z,85.82
2016-09-09T22:20:12.289Z,85.82
2016-09-09T22:21:12.304Z,85.82
2016-09-09T22:22:12.325Z,85.82
2016-09-09T22:23:12.348Z,85.82
2016-09-09T22:24:12.371Z,85.82
2016-09-09T22:25:12.393Z,86.01
2016-09-09T22:26:12.409Z,85.82
2016-09-09T22:27:12.480Z,85.63
2016-09-09T22:28:12.464Z,85.92
2016-09-09T22:29:12.483Z,86.11
2016-09-09T22:30:12.508Z,86.11
2016-09-09T22:31:12.522Z,86.3
2016-09-09T22:32:12.540Z,86.4
2016-09-09T22:33:12.561Z,86.3
2016-09-09T22:34:12.590Z,86.01
2016-09-09T22:35:12.607Z,86.3
2016-09-09T22:36:12.628Z,86.11
2016-09-09T22:37:12.646Z,86.11
2016-09-09T22:38:12.671Z,86.21
2016-09-09T22:39:12.693Z,86.01
2016-09-09T22:40:12.722Z,86.21
2016-09-09T22:41:12.744Z,86.4
2016-09-09T22:42:12.760Z,86.21
2016-09-09T22:43:12.778Z,86.3
2016-09-09T22:44:12.799Z,86.01
2016-09-09T22:45:12.824Z,85.72
2016-09-09T22:46:12.843Z,86.01
2016-09-09T22:47:12.872Z,86.3
2016-09-09T22:48:12.885Z,86.4
2016-09-09T22:49:12.906Z,86.21
2016-09-09T22:50:12.931Z,86.11
2016-09-09T22:51:12.965Z,86.3
2016-09-09T22:52:12.969Z,86.11
2016-09-09T22:53:13.003Z,86.21
2016-09-09T22:54:13.015Z,85.92
2016-09-09T22:55:13.039Z,85.63
2016-09-09T22:56:13.056Z,86.21
2016-09-09T22:57:13.078Z,86.49
2016-09-09T22:58:13.107Z,86.3
2016-09-09T22:59:13.116Z,86.11
2016-09-09T23:00:13.138Z,86.3
2016-09-09T23:01:13.162Z,86.11
2016-09-09T23:02:13.190Z,86.4
2016-09-09T23:03:13.214Z,86.4
2016-09-09T23:04:13.225Z,86.3
2016-09-09T23:05:13.273Z,86.4
2016-09-09T23:06:13.276Z,86.49
2016-09-09T23:07:13.292Z,86.4
2016-09-09T23:08:13.313Z,86.49
2016-09-09T23:09:13.335Z,86.3
2016-09-09T23:10:13.354Z,85.92
2016-09-09T23:11:13.389Z,86.11
2016-09-09T23:12:13.403Z,86.21
2016-09-09T23:13:13.437Z,86.21
2016-09-09T23:14:13.437Z,86.4
2016-09-09T23:15:13.462Z,86.58
2016-09-09T23:16:13.481Z,86.88
2016-09-09T23:17:13.506Z,86.88
2016-09-09T23:18:13.533Z,86.68
2016-09-09T23:19:13.548Z,86.83
2016-09-09T23:20:13.565Z,86.88
2016-09-09T23:21:13.594Z,86.58
2016-09-09T23:22:13.612Z,86.93
2016-09-09T23:23:13.634Z,87.12
2016-09-09T23:24:13.651Z,87.41
2016-09-09T23:25:13.669Z,86.97
2016-09-09T23:26:13.697Z,86.88
2016-09-09T23:27:13.713Z,87.16
2016-09-09T23:28:13.740Z,87.12
2016-09-09T23:29:13.768Z,87.6
2016-09-09T23:30:13.794Z,87.6
2016-09-09T23:31:13.801Z,87.41
2016-09-09T23:32:13.829Z,87.74
2016-09-09T23:33:13.842Z,87.21
2016-09-09T23:34:13.869Z,87.31
2016-09-09T23:35:13.896Z,87.5
2016-09-09T23:36:13.909Z,87.5
2016-09-09T23:37:13.965Z,87.31
2016-09-09T23:38:13.962Z,87.21
2016-09-09T23:39:13.978Z,87.41
2016-09-09T23:40:14.001Z,87.5
2016-09-09T23:41:14.014Z,87.5
2016-09-09T23:42:14.042Z,87.64
2016-09-09T23:43:14.062Z,87.55
2016-09-09T23:44:14.082Z,87.35
2016-09-09T23:45:14.104Z,87.64
2016-09-09T23:46:14.131Z,87.74
2016-09-09T23:47:14.150Z,87.64
2016-09-09T23:48:14.166Z,87.74
2016-09-09T23:49:14.187Z,87.5
2016-09-09T23:50:14.218Z,87.41
2016-09-09T23:51:14.233Z,87.45
2016-09-09T23:52:14.246Z,87.64
2016-09-09T23:53:14.273Z,87.64
2016-09-09T23:54:14.295Z,87.6
2016-09-09T23:55:14.311Z,87.88
2016-09-09T23:56:14.330Z,87.41
2016-09-09T23:57:14.359Z,87.79
2016-09-09T23:58:14.376Z,87.79
2016-09-09T23:59:14.403Z,87.79
